sensor_id;sensor_type;location;lat;lon;timestamp;temperature;humidity
62573;DHT22;48626;51.678;5.806;2023-04-08T00:01:52;10.20;99.90
62573;DHT22;48626;51.678;5.806;2023-04-08T00:04:18;10.20;99.90
62573;DHT22;48626;51.678;5.806;2023-04-08T00:06:44;10.20;99.90
62573;DHT22;48626;51.678;5.806;2023-04-08T00:09:10;10.20;99.90
62573;DHT22;48626;51.678;5.806;2023-04-08T00:11:36;10.20;99.90
62573;DHT22;48626;51.678;5.806;2023-04-08T00:14:02;10.20;99.90
62573;DHT22;48626;51.678;5.806;2023-04-08T00:16:29;10.20;99.90
62573;DHT22;48626;51.678;5.806;2023-04-08T00:18:55;10.20;99.90
62573;DHT22;48626;51.678;5.806;2023-04-08T00:21:21;10.20;99.90
62573;DHT22;48626;51.678;5.806;2023-04-08T00:23:48;10.10;99.90
62573;DHT22;48626;51.678;5.806;2023-04-08T00:26:14;10.10;99.90
62573;DHT22;48626;51.678;5.806;2023-04-08T00:28:40;10.10;99.90
62573;DHT22;48626;51.678;5.806;2023-04-08T00:31:07;10.00;99.90
62573;DHT22;48626;51.678;5.806;2023-04-08T00:33:33;10.00;99.90
62573;DHT22;48626;51.678;5.806;2023-04-08T00:35:58;10.00;99.90
62573;DHT22;48626;51.678;5.806;2023-04-08T00:38:24;10.00;99.90
62573;DHT22;48626;51.678;5.806;2023-04-08T00:40:49;10.00;99.90
62573;DHT22;48626;51.678;5.806;2023-04-08T00:43:16;10.10;99.90
62573;DHT22;48626;51.678;5.806;2023-04-08T00:45:48;10.10;99.90
62573;DHT22;48626;51.678;5.806;2023-04-08T00:48:14;10.10;99.90
62573;DHT22;48626;51.678;5.806;2023-04-08T00:50:41;10.10;99.90
62573;DHT22;48626;51.678;5.806;2023-04-08T00:53:07;10.20;99.90
62573;DHT22;48626;51.678;5.806;2023-04-08T00:55:33;10.20;99.90
62573;DHT22;48626;51.678;5.806;2023-04-08T00:57:59;10.20;99.90
62573;DHT22;48626;51.678;5.806;2023-04-08T01:00:25;10.20;99.90
62573;DHT22;48626;51.678;5.806;2023-04-08T01:03:16;10.20;99.90
62573;DHT22;48626;51.678;5.806;2023-04-08T01:08:11;10.10;99.90
62573;DHT22;48626;51.678;5.806;2023-04-08T01:10:40;10.10;99.90
62573;DHT22;48626;51.678;5.806;2023-04-08T01:13:09;10.00;99.90
62573;DHT22;48626;51.678;5.806;2023-04-08T01:15:37;10.10;99.90
62573;DHT22;48626;51.678;5.806;2023-04-08T01:18:06;10.10;99.90
62573;DHT22;48626;51.678;5.806;2023-04-08T01:20:33;10.10;99.90
62573;DHT22;48626;51.678;5.806;2023-04-08T01:24:08;10.20;99.90
62573;DHT22;48626;51.678;5.806;2023-04-08T01:26:11;10.10;99.90
62573;DHT22;48626;51.678;5.806;2023-04-08T01:28:38;10.10;99.90
62573;DHT22;48626;51.678;5.806;2023-04-08T01:31:06;10.10;99.90
62573;DHT22;48626;51.678;5.806;2023-04-08T01:33:32;10.00;99.90
62573;DHT22;48626;51.678;5.806;2023-04-08T01:35:59;10.00;99.90
62573;DHT22;48626;51.678;5.806;2023-04-08T01:38:26;10.10;99.90
62573;DHT22;48626;51.678;5.806;2023-04-08T01:40:54;10.00;99.90
62573;DHT22;48626;51.678;5.806;2023-04-08T01:43:20;10.10;99.90
62573;DHT22;48626;51.678;5.806;2023-04-08T01:45:47;10.10;99.90
62573;DHT22;48626;51.678;5.806;2023-04-08T01:48:14;10.00;99.90
62573;DHT22;48626;51.678;5.806;2023-04-08T01:50:44;10.00;99.90
62573;DHT22;48626;51.678;5.806;2023-04-08T01:53:11;10.10;99.90
62573;DHT22;48626;51.678;5.806;2023-04-08T01:55:41;10.10;99.90
62573;DHT22;48626;51.678;5.806;2023-04-08T01:58:10;10.00;99.90
62573;DHT22;48626;51.678;5.806;2023-04-08T02:00:38;10.00;99.90
62573;DHT22;48626;51.678;5.806;2023-04-08T02:03:05;10.00;99.90
62573;DHT22;48626;51.678;5.806;2023-04-08T02:05:33;9.90;99.90
62573;DHT22;48626;51.678;5.806;2023-04-08T02:07:58;9.80;99.90
62573;DHT22;48626;51.678;5.806;2023-04-08T02:10:25;9.80;99.90
62573;DHT22;48626;51.678;5.806;2023-04-08T02:12:50;9.80;99.90
62573;DHT22;48626;51.678;5.806;2023-04-08T02:15:16;9.70;99.90
62573;DHT22;48626;51.678;5.806;2023-04-08T02:17:49;9.60;99.90
62573;DHT22;48626;51.678;5.806;2023-04-08T02:25:40;9.60;99.90
62573;DHT22;48626;51.678;5.806;2023-04-08T02:28:09;9.60;99.90
62573;DHT22;48626;51.678;5.806;2023-04-08T02:30:36;9.60;99.90
62573;DHT22;48626;51.678;5.806;2023-04-08T02:33:06;9.60;99.90
62573;DHT22;48626;51.678;5.806;2023-04-08T02:35:33;9.60;99.90
62573;DHT22;48626;51.678;5.806;2023-04-08T02:37:59;9.60;99.90
62573;DHT22;48626;51.678;5.806;2023-04-08T02:40:30;9.60;99.90
62573;DHT22;48626;51.678;5.806;2023-04-08T02:42:56;9.60;99.90
62573;DHT22;48626;51.678;5.806;2023-04-08T02:45:27;9.60;99.90
62573;DHT22;48626;51.678;5.806;2023-04-08T02:47:54;9.60;99.90
62573;DHT22;48626;51.678;5.806;2023-04-08T02:50:20;9.60;99.90
62573;DHT22;48626;51.678;5.806;2023-04-08T02:52:45;9.50;99.90
62573;DHT22;48626;51.678;5.806;2023-04-08T02:55:11;9.50;99.90
62573;DHT22;48626;51.678;5.806;2023-04-08T02:57:38;9.40;99.90
62573;DHT22;48626;51.678;5.806;2023-04-08T03:00:05;9.40;99.90
62573;DHT22;48626;51.678;5.806;2023-04-08T03:02:31;9.40;99.90
62573;DHT22;48626;51.678;5.806;2023-04-08T03:04:57;9.30;99.90
62573;DHT22;48626;51.678;5.806;2023-04-08T03:07:23;9.20;99.90
62573;DHT22;48626;51.678;5.806;2023-04-08T03:09:49;9.20;99.90
62573;DHT22;48626;51.678;5.806;2023-04-08T03:12:15;9.10;99.90
62573;DHT22;48626;51.678;5.806;2023-04-08T03:14:41;9.00;99.90
62573;DHT22;48626;51.678;5.806;2023-04-08T03:17:07;8.90;99.90
62573;DHT22;48626;51.678;5.806;2023-04-08T03:19:33;8.80;99.90
62573;DHT22;48626;51.678;5.806;2023-04-08T03:21:59;8.70;99.90
62573;DHT22;48626;51.678;5.806;2023-04-08T03:24:24;8.70;99.90
62573;DHT22;48626;51.678;5.806;2023-04-08T03:26:50;8.70;99.90
62573;DHT22;48626;51.678;5.806;2023-04-08T03:29:16;8.80;99.90
62573;DHT22;48626;51.678;5.806;2023-04-08T03:31:41;8.80;99.90
62573;DHT22;48626;51.678;5.806;2023-04-08T03:34:07;8.90;99.90
62573;DHT22;48626;51.678;5.806;2023-04-08T03:36:33;8.80;99.90
62573;DHT22;48626;51.678;5.806;2023-04-08T03:38:58;8.90;99.90
62573;DHT22;48626;51.678;5.806;2023-04-08T03:41:24;8.90;99.90
62573;DHT22;48626;51.678;5.806;2023-04-08T03:43:50;8.80;99.90
62573;DHT22;48626;51.678;5.806;2023-04-08T03:46:15;8.80;99.90
62573;DHT22;48626;51.678;5.806;2023-04-08T03:48:41;8.80;99.90
62573;DHT22;48626;51.678;5.806;2023-04-08T03:51:07;8.90;99.90
62573;DHT22;48626;51.678;5.806;2023-04-08T03:53:33;8.90;99.90
62573;DHT22;48626;51.678;5.806;2023-04-08T03:55:58;9.00;99.90
62573;DHT22;48626;51.678;5.806;2023-04-08T03:58:24;9.00;99.90
62573;DHT22;48626;51.678;5.806;2023-04-08T04:00:50;9.00;99.90
62573;DHT22;48626;51.678;5.806;2023-04-08T04:03:16;9.00;99.90
62573;DHT22;48626;51.678;5.806;2023-04-08T04:05:42;9.10;99.90
62573;DHT22;48626;51.678;5.806;2023-04-08T04:08:08;9.10;99.90
62573;DHT22;48626;51.678;5.806;2023-04-08T04:10:34;9.10;99.90
62573;DHT22;48626;51.678;5.806;2023-04-08T04:13:00;9.10;99.90
62573;DHT22;48626;51.678;5.806;2023-04-08T04:15:26;9.10;99.90
62573;DHT22;48626;51.678;5.806;2023-04-08T04:17:51;9.10;99.90
62573;DHT22;48626;51.678;5.806;2023-04-08T04:20:17;9.10;99.90
62573;DHT22;48626;51.678;5.806;2023-04-08T04:22:43;9.10;99.90
62573;DHT22;48626;51.678;5.806;2023-04-08T04:25:09;9.10;99.90
62573;DHT22;48626;51.678;5.806;2023-04-08T04:27:35;9.10;99.90
62573;DHT22;48626;51.678;5.806;2023-04-08T04:30:04;9.10;99.90
62573;DHT22;48626;51.678;5.806;2023-04-08T04:32:30;9.10;99.90
62573;DHT22;48626;51.678;5.806;2023-04-08T04:34:55;9.20;99.90
62573;DHT22;48626;51.678;5.806;2023-04-08T04:37:21;9.20;99.90
62573;DHT22;48626;51.678;5.806;2023-04-08T04:39:48;9.20;99.90
62573;DHT22;48626;51.678;5.806;2023-04-08T04:42:13;9.20;99.90
62573;DHT22;48626;51.678;5.806;2023-04-08T04:44:39;9.20;99.90
62573;DHT22;48626;51.678;5.806;2023-04-08T04:47:05;9.20;99.90
62573;DHT22;48626;51.678;5.806;2023-04-08T04:49:30;9.20;99.90
62573;DHT22;48626;51.678;5.806;2023-04-08T04:51:56;9.20;99.90
62573;DHT22;48626;51.678;5.806;2023-04-08T04:54:22;9.20;99.90
62573;DHT22;48626;51.678;5.806;2023-04-08T04:56:47;9.20;99.90
62573;DHT22;48626;51.678;5.806;2023-04-08T04:59:13;9.20;99.90
62573;DHT22;48626;51.678;5.806;2023-04-08T05:01:38;9.20;99.90
62573;DHT22;48626;51.678;5.806;2023-04-08T05:04:05;9.20;99.90
62573;DHT22;48626;51.678;5.806;2023-04-08T05:06:31;9.20;99.90
62573;DHT22;48626;51.678;5.806;2023-04-08T05:08:57;9.20;99.90
62573;DHT22;48626;51.678;5.806;2023-04-08T05:11:23;9.20;99.90
62573;DHT22;48626;51.678;5.806;2023-04-08T05:13:48;9.20;99.90
62573;DHT22;48626;51.678;5.806;2023-04-08T05:16:14;9.20;99.90
62573;DHT22;48626;51.678;5.806;2023-04-08T05:18:40;9.20;99.90
62573;DHT22;48626;51.678;5.806;2023-04-08T05:21:06;9.20;99.90
62573;DHT22;48626;51.678;5.806;2023-04-08T05:23:33;9.30;99.90
62573;DHT22;48626;51.678;5.806;2023-04-08T05:25:58;9.30;99.90
62573;DHT22;48626;51.678;5.806;2023-04-08T05:28:24;9.30;99.90
62573;DHT22;48626;51.678;5.806;2023-04-08T05:30:51;9.20;99.90
62573;DHT22;48626;51.678;5.806;2023-04-08T05:33:17;9.20;99.90
62573;DHT22;48626;51.678;5.806;2023-04-08T05:35:43;9.20;99.90
62573;DHT22;48626;51.678;5.806;2023-04-08T05:38:09;9.20;99.90
62573;DHT22;48626;51.678;5.806;2023-04-08T05:40:34;9.20;99.90
62573;DHT22;48626;51.678;5.806;2023-04-08T05:43:00;9.20;99.90
62573;DHT22;48626;51.678;5.806;2023-04-08T05:45:27;9.20;99.90
62573;DHT22;48626;51.678;5.806;2023-04-08T05:47:53;9.10;99.90
62573;DHT22;48626;51.678;5.806;2023-04-08T05:50:19;9.10;99.90
62573;DHT22;48626;51.678;5.806;2023-04-08T05:52:44;9.10;99.90
62573;DHT22;48626;51.678;5.806;2023-04-08T05:55:11;9.00;99.90
62573;DHT22;48626;51.678;5.806;2023-04-08T05:57:37;9.00;99.90
62573;DHT22;48626;51.678;5.806;2023-04-08T06:00:08;9.00;99.90
62573;DHT22;48626;51.678;5.806;2023-04-08T06:02:34;9.00;99.90
62573;DHT22;48626;51.678;5.806;2023-04-08T06:05:01;8.90;99.90
62573;DHT22;48626;51.678;5.806;2023-04-08T06:07:28;8.90;99.90
62573;DHT22;48626;51.678;5.806;2023-04-08T06:09:54;8.90;99.90
62573;DHT22;48626;51.678;5.806;2023-04-08T06:12:20;8.90;99.90
62573;DHT22;48626;51.678;5.806;2023-04-08T06:14:45;8.90;99.90
62573;DHT22;48626;51.678;5.806;2023-04-08T06:17:11;8.80;99.90
62573;DHT22;48626;51.678;5.806;2023-04-08T06:19:36;8.80;99.90
62573;DHT22;48626;51.678;5.806;2023-04-08T06:22:02;8.80;99.90
62573;DHT22;48626;51.678;5.806;2023-04-08T06:24:28;8.80;99.90
62573;DHT22;48626;51.678;5.806;2023-04-08T06:26:55;8.70;99.90
62573;DHT22;48626;51.678;5.806;2023-04-08T06:29:21;8.80;99.90
62573;DHT22;48626;51.678;5.806;2023-04-08T06:31:48;8.70;99.90
62573;DHT22;48626;51.678;5.806;2023-04-08T06:34:15;8.70;99.90
62573;DHT22;48626;51.678;5.806;2023-04-08T06:36:40;8.80;99.90
62573;DHT22;48626;51.678;5.806;2023-04-08T06:39:06;8.80;99.90
62573;DHT22;48626;51.678;5.806;2023-04-08T06:41:32;8.80;99.90
62573;DHT22;48626;51.678;5.806;2023-04-08T06:43:57;8.80;99.90
62573;DHT22;48626;51.678;5.806;2023-04-08T06:46:24;8.80;99.90
62573;DHT22;48626;51.678;5.806;2023-04-08T06:48:50;8.80;99.90
62573;DHT22;48626;51.678;5.806;2023-04-08T06:51:15;8.80;99.90
62573;DHT22;48626;51.678;5.806;2023-04-08T06:53:41;8.80;99.90
62573;DHT22;48626;51.678;5.806;2023-04-08T06:56:06;8.80;99.90
62573;DHT22;48626;51.678;5.806;2023-04-08T06:58:32;8.90;99.90
62573;DHT22;48626;51.678;5.806;2023-04-08T07:00:59;8.90;99.90
62573;DHT22;48626;51.678;5.806;2023-04-08T07:03:25;9.00;99.90
62573;DHT22;48626;51.678;5.806;2023-04-08T07:05:51;9.00;99.90
62573;DHT22;48626;51.678;5.806;2023-04-08T07:08:17;9.00;99.90
62573;DHT22;48626;51.678;5.806;2023-04-08T07:10:43;8.90;99.90
62573;DHT22;48626;51.678;5.806;2023-04-08T07:13:09;8.90;99.90
62573;DHT22;48626;51.678;5.806;2023-04-08T07:15:35;9.00;99.90
62573;DHT22;48626;51.678;5.806;2023-04-08T07:18:01;8.90;99.90
62573;DHT22;48626;51.678;5.806;2023-04-08T07:20:27;8.90;99.90
62573;DHT22;48626;51.678;5.806;2023-04-08T07:22:53;8.90;99.90
62573;DHT22;48626;51.678;5.806;2023-04-08T07:25:18;8.90;99.90
62573;DHT22;48626;51.678;5.806;2023-04-08T07:27:44;9.00;99.90
62573;DHT22;48626;51.678;5.806;2023-04-08T07:30:10;9.10;99.90
62573;DHT22;48626;51.678;5.806;2023-04-08T07:32:36;9.10;99.90
62573;DHT22;48626;51.678;5.806;2023-04-08T07:35:02;9.20;99.90
62573;DHT22;48626;51.678;5.806;2023-04-08T07:37:27;9.20;99.90
62573;DHT22;48626;51.678;5.806;2023-04-08T07:39:53;9.20;99.90
62573;DHT22;48626;51.678;5.806;2023-04-08T07:42:19;9.30;99.90
62573;DHT22;48626;51.678;5.806;2023-04-08T07:44:45;9.30;99.90
62573;DHT22;48626;51.678;5.806;2023-04-08T07:47:12;9.30;99.90
62573;DHT22;48626;51.678;5.806;2023-04-08T07:49:38;9.40;99.90
62573;DHT22;48626;51.678;5.806;2023-04-08T07:52:05;9.40;99.90
62573;DHT22;48626;51.678;5.806;2023-04-08T07:54:31;9.40;99.90
62573;DHT22;48626;51.678;5.806;2023-04-08T07:56:59;9.30;99.90
62573;DHT22;48626;51.678;5.806;2023-04-08T07:59:26;9.40;99.90
62573;DHT22;48626;51.678;5.806;2023-04-08T08:01:52;9.40;99.90
62573;DHT22;48626;51.678;5.806;2023-04-08T08:04:17;9.40;99.90
62573;DHT22;48626;51.678;5.806;2023-04-08T08:06:43;9.30;99.90
62573;DHT22;48626;51.678;5.806;2023-04-08T08:09:09;9.40;99.90
62573;DHT22;48626;51.678;5.806;2023-04-08T08:11:34;9.40;99.90
62573;DHT22;48626;51.678;5.806;2023-04-08T08:14:00;9.50;99.90
62573;DHT22;48626;51.678;5.806;2023-04-08T08:16:30;9.60;99.90
62573;DHT22;48626;51.678;5.806;2023-04-08T08:18:57;9.70;99.90
62573;DHT22;48626;51.678;5.806;2023-04-08T08:21:22;9.80;99.90
62573;DHT22;48626;51.678;5.806;2023-04-08T08:23:48;9.80;99.90
62573;DHT22;48626;51.678;5.806;2023-04-08T08:26:14;9.80;99.90
62573;DHT22;48626;51.678;5.806;2023-04-08T08:28:40;9.80;99.90
62573;DHT22;48626;51.678;5.806;2023-04-08T08:31:05;9.90;99.90
62573;DHT22;48626;51.678;5.806;2023-04-08T08:33:37;10.00;99.90
62573;DHT22;48626;51.678;5.806;2023-04-08T08:36:02;10.10;99.90
62573;DHT22;48626;51.678;5.806;2023-04-08T08:38:30;10.20;99.90
62573;DHT22;48626;51.678;5.806;2023-04-08T08:40:57;10.10;99.90
62573;DHT22;48626;51.678;5.806;2023-04-08T08:43:24;10.20;99.90
62573;DHT22;48626;51.678;5.806;2023-04-08T08:45:50;10.30;99.90
62573;DHT22;48626;51.678;5.806;2023-04-08T08:48:16;10.40;99.90
62573;DHT22;48626;51.678;5.806;2023-04-08T08:50:42;10.60;99.90
62573;DHT22;48626;51.678;5.806;2023-04-08T08:53:08;10.80;99.90
62573;DHT22;48626;51.678;5.806;2023-04-08T08:55:34;11.00;99.90
62573;DHT22;48626;51.678;5.806;2023-04-08T08:58:00;11.20;99.90
62573;DHT22;48626;51.678;5.806;2023-04-08T09:00:39;11.20;99.90
62573;DHT22;48626;51.678;5.806;2023-04-08T09:03:14;11.20;99.90
62573;DHT22;48626;51.678;5.806;2023-04-08T09:06:00;11.30;99.90
62573;DHT22;48626;51.678;5.806;2023-04-08T09:08:29;11.20;99.90
62573;DHT22;48626;51.678;5.806;2023-04-08T09:11:09;11.10;99.90
62573;DHT22;48626;51.678;5.806;2023-04-08T09:13:36;11.10;99.90
62573;DHT22;48626;51.678;5.806;2023-04-08T09:16:09;11.20;99.90
62573;DHT22;48626;51.678;5.806;2023-04-08T09:18:39;11.40;99.90
62573;DHT22;48626;51.678;5.806;2023-04-08T09:21:07;11.50;99.90
62573;DHT22;48626;51.678;5.806;2023-04-08T09:26:10;11.70;99.90
62573;DHT22;48626;51.678;5.806;2023-04-08T09:28:37;11.70;99.90
62573;DHT22;48626;51.678;5.806;2023-04-08T09:31:24;11.70;99.90
62573;DHT22;48626;51.678;5.806;2023-04-08T09:33:51;11.80;99.90
62573;DHT22;48626;51.678;5.806;2023-04-08T09:36:17;11.90;99.90
62573;DHT22;48626;51.678;5.806;2023-04-08T09:38:44;12.00;99.90
62573;DHT22;48626;51.678;5.806;2023-04-08T09:41:13;12.10;99.90
62573;DHT22;48626;51.678;5.806;2023-04-08T09:43:46;12.30;99.90
62573;DHT22;48626;51.678;5.806;2023-04-08T09:46:17;12.30;99.90
62573;DHT22;48626;51.678;5.806;2023-04-08T09:49:11;12.50;99.90
62573;DHT22;48626;51.678;5.806;2023-04-08T09:51:58;12.70;99.90
62573;DHT22;48626;51.678;5.806;2023-04-08T10:02:35;12.60;99.90
62573;DHT22;48626;51.678;5.806;2023-04-08T10:05:06;12.40;99.90
62573;DHT22;48626;51.678;5.806;2023-04-08T10:07:34;12.50;99.90
62573;DHT22;48626;51.678;5.806;2023-04-08T10:10:00;12.80;99.90
62573;DHT22;48626;51.678;5.806;2023-04-08T10:12:26;13.10;99.90
62573;DHT22;48626;51.678;5.806;2023-04-08T10:15:21;13.40;99.90
62573;DHT22;48626;51.678;5.806;2023-04-08T10:17:47;13.70;99.90
62573;DHT22;48626;51.678;5.806;2023-04-08T10:23:00;14.60;99.90
62573;DHT22;48626;51.678;5.806;2023-04-08T10:25:31;15.00;99.90
62573;DHT22;48626;51.678;5.806;2023-04-08T10:30:48;15.50;99.90
62573;DHT22;48626;51.678;5.806;2023-04-08T10:33:15;15.80;99.90
62573;DHT22;48626;51.678;5.806;2023-04-08T10:35:45;16.00;99.90
62573;DHT22;48626;51.678;5.806;2023-04-08T10:38:12;16.30;99.90
62573;DHT22;48626;51.678;5.806;2023-04-08T10:40:39;16.60;99.90
62573;DHT22;48626;51.678;5.806;2023-04-08T10:43:07;17.00;99.90
62573;DHT22;48626;51.678;5.806;2023-04-08T10:45:33;17.20;99.90
62573;DHT22;48626;51.678;5.806;2023-04-08T10:48:22;17.60;99.90
62573;DHT22;48626;51.678;5.806;2023-04-08T10:50:58;18.00;99.90
62573;DHT22;48626;51.678;5.806;2023-04-08T10:53:35;18.20;99.90
62573;DHT22;48626;51.678;5.806;2023-04-08T10:56:13;18.60;99.90
62573;DHT22;48626;51.678;5.806;2023-04-08T10:58:49;18.90;99.90
62573;DHT22;48626;51.678;5.806;2023-04-08T11:01:15;19.30;99.90
62573;DHT22;48626;51.678;5.806;2023-04-08T11:03:41;19.40;99.90
62573;DHT22;48626;51.678;5.806;2023-04-08T11:06:07;19.60;99.90
62573;DHT22;48626;51.678;5.806;2023-04-08T11:08:34;19.80;99.90
62573;DHT22;48626;51.678;5.806;2023-04-08T11:11:01;19.80;99.90
62573;DHT22;48626;51.678;5.806;2023-04-08T11:13:29;19.90;99.90
62573;DHT22;48626;51.678;5.806;2023-04-08T11:15:59;20.20;99.90
62573;DHT22;48626;51.678;5.806;2023-04-08T11:18:25;20.40;99.90
62573;DHT22;48626;51.678;5.806;2023-04-08T11:20:52;20.30;99.90
62573;DHT22;48626;51.678;5.806;2023-04-08T11:23:18;20.60;99.90
62573;DHT22;48626;51.678;5.806;2023-04-08T11:25:45;20.70;99.90
62573;DHT22;48626;51.678;5.806;2023-04-08T11:28:12;20.90;99.90
62573;DHT22;48626;51.678;5.806;2023-04-08T11:30:39;21.20;99.90
62573;DHT22;48626;51.678;5.806;2023-04-08T11:33:06;21.40;99.90
62573;DHT22;48626;51.678;5.806;2023-04-08T11:35:32;21.00;99.90
62573;DHT22;48626;51.678;5.806;2023-04-08T11:37:58;21.40;99.90
62573;DHT22;48626;51.678;5.806;2023-04-08T11:40:24;21.60;99.90
62573;DHT22;48626;51.678;5.806;2023-04-08T11:42:51;22.00;99.90
62573;DHT22;48626;51.678;5.806;2023-04-08T11:45:19;22.40;99.90
62573;DHT22;48626;51.678;5.806;2023-04-08T11:47:46;22.40;99.90
62573;DHT22;48626;51.678;5.806;2023-04-08T11:50:22;21.60;99.90
62573;DHT22;48626;51.678;5.806;2023-04-08T11:52:50;21.10;99.90
62573;DHT22;48626;51.678;5.806;2023-04-08T11:55:31;20.70;99.90
62573;DHT22;48626;51.678;5.806;2023-04-08T11:58:02;20.70;99.90
62573;DHT22;48626;51.678;5.806;2023-04-08T12:00:28;20.50;99.90
62573;DHT22;48626;51.678;5.806;2023-04-08T12:02:55;20.50;99.90
62573;DHT22;48626;51.678;5.806;2023-04-08T12:05:21;20.30;99.90
62573;DHT22;48626;51.678;5.806;2023-04-08T12:07:47;20.10;99.90
62573;DHT22;48626;51.678;5.806;2023-04-08T12:10:13;19.90;99.90
62573;DHT22;48626;51.678;5.806;2023-04-08T12:12:39;19.50;99.90
62573;DHT22;48626;51.678;5.806;2023-04-08T12:15:06;19.10;99.90
62573;DHT22;48626;51.678;5.806;2023-04-08T12:17:35;18.70;99.90
62573;DHT22;48626;51.678;5.806;2023-04-08T12:20:04;18.30;99.90
62573;DHT22;48626;51.678;5.806;2023-04-08T12:22:29;18.00;99.90
62573;DHT22;48626;51.678;5.806;2023-04-08T12:24:56;17.80;99.90
62573;DHT22;48626;51.678;5.806;2023-04-08T12:27:21;17.80;99.90
62573;DHT22;48626;51.678;5.806;2023-04-08T12:29:47;17.70;99.90
62573;DHT22;48626;51.678;5.806;2023-04-08T12:32:14;17.60;99.90
62573;DHT22;48626;51.678;5.806;2023-04-08T12:34:40;17.40;99.90
62573;DHT22;48626;51.678;5.806;2023-04-08T12:37:05;17.50;99.90
62573;DHT22;48626;51.678;5.806;2023-04-08T12:39:31;17.30;99.90
62573;DHT22;48626;51.678;5.806;2023-04-08T12:41:57;17.10;99.90
62573;DHT22;48626;51.678;5.806;2023-04-08T12:44:24;17.00;99.90
62573;DHT22;48626;51.678;5.806;2023-04-08T12:46:50;16.80;99.90
62573;DHT22;48626;51.678;5.806;2023-04-08T12:49:15;16.80;99.90
62573;DHT22;48626;51.678;5.806;2023-04-08T12:51:41;16.80;99.90
62573;DHT22;48626;51.678;5.806;2023-04-08T12:54:07;16.90;99.90
62573;DHT22;48626;51.678;5.806;2023-04-08T12:56:33;16.90;99.90
62573;DHT22;48626;51.678;5.806;2023-04-08T12:58:59;16.90;99.90
62573;DHT22;48626;51.678;5.806;2023-04-08T13:01:25;16.80;99.90
62573;DHT22;48626;51.678;5.806;2023-04-08T13:03:52;16.90;99.90
62573;DHT22;48626;51.678;5.806;2023-04-08T13:06:18;17.20;99.90
62573;DHT22;48626;51.678;5.806;2023-04-08T13:08:44;17.80;99.90
62573;DHT22;48626;51.678;5.806;2023-04-08T13:11:09;17.90;99.90
62573;DHT22;48626;51.678;5.806;2023-04-08T13:13:35;18.00;99.90
62573;DHT22;48626;51.678;5.806;2023-04-08T13:16:02;17.90;99.90
62573;DHT22;48626;51.678;5.806;2023-04-08T13:18:28;18.10;99.90
62573;DHT22;48626;51.678;5.806;2023-04-08T13:20:54;18.80;99.90
62573;DHT22;48626;51.678;5.806;2023-04-08T13:23:20;19.30;99.90
62573;DHT22;48626;51.678;5.806;2023-04-08T13:25:46;20.70;99.90
62573;DHT22;48626;51.678;5.806;2023-04-08T13:28:12;21.80;99.90
62573;DHT22;48626;51.678;5.806;2023-04-08T13:30:39;22.50;99.90
62573;DHT22;48626;51.678;5.806;2023-04-08T13:33:05;23.20;99.90
62573;DHT22;48626;51.678;5.806;2023-04-08T13:35:30;23.80;99.90
62573;DHT22;48626;51.678;5.806;2023-04-08T13:37:56;23.90;99.90
62573;DHT22;48626;51.678;5.806;2023-04-08T13:40:22;24.10;99.90
62573;DHT22;48626;51.678;5.806;2023-04-08T13:42:48;24.60;99.90
62573;DHT22;48626;51.678;5.806;2023-04-08T13:45:14;25.30;99.90
62573;DHT22;48626;51.678;5.806;2023-04-08T13:47:40;25.10;99.90
62573;DHT22;48626;51.678;5.806;2023-04-08T13:50:07;25.30;99.90
62573;DHT22;48626;51.678;5.806;2023-04-08T13:52:33;25.20;99.90
62573;DHT22;48626;51.678;5.806;2023-04-08T13:54:59;24.60;99.90
62573;DHT22;48626;51.678;5.806;2023-04-08T13:57:25;23.90;99.90
62573;DHT22;48626;51.678;5.806;2023-04-08T13:59:50;23.10;99.90
62573;DHT22;48626;51.678;5.806;2023-04-08T14:02:16;22.60;99.90
62573;DHT22;48626;51.678;5.806;2023-04-08T14:04:42;22.00;99.90
62573;DHT22;48626;51.678;5.806;2023-04-08T14:07:12;21.60;99.90
62573;DHT22;48626;51.678;5.806;2023-04-08T14:09:38;21.40;99.90
62573;DHT22;48626;51.678;5.806;2023-04-08T14:12:04;21.10;99.90
62573;DHT22;48626;51.678;5.806;2023-04-08T14:14:30;20.90;99.90
62573;DHT22;48626;51.678;5.806;2023-04-08T14:16:55;21.40;99.90
62573;DHT22;48626;51.678;5.806;2023-04-08T14:19:21;21.20;99.90
62573;DHT22;48626;51.678;5.806;2023-04-08T14:21:47;21.40;99.90
62573;DHT22;48626;51.678;5.806;2023-04-08T14:24:12;21.30;99.90
62573;DHT22;48626;51.678;5.806;2023-04-08T14:26:38;21.20;99.90
62573;DHT22;48626;51.678;5.806;2023-04-08T14:29:05;20.90;99.90
62573;DHT22;48626;51.678;5.806;2023-04-08T14:31:32;20.60;99.90
62573;DHT22;48626;51.678;5.806;2023-04-08T14:33:59;20.30;99.90
62573;DHT22;48626;51.678;5.806;2023-04-08T14:36:25;20.00;99.90
62573;DHT22;48626;51.678;5.806;2023-04-08T14:38:52;19.80;99.90
62573;DHT22;48626;51.678;5.806;2023-04-08T14:41:18;19.60;99.90
62573;DHT22;48626;51.678;5.806;2023-04-08T14:43:45;19.40;99.90
62573;DHT22;48626;51.678;5.806;2023-04-08T14:46:11;19.40;99.90
62573;DHT22;48626;51.678;5.806;2023-04-08T14:48:37;19.40;99.90
62573;DHT22;48626;51.678;5.806;2023-04-08T14:51:02;19.30;99.90
62573;DHT22;48626;51.678;5.806;2023-04-08T14:53:28;19.30;99.90
62573;DHT22;48626;51.678;5.806;2023-04-08T14:55:54;19.10;99.90
62573;DHT22;48626;51.678;5.806;2023-04-08T14:58:19;19.00;99.90
62573;DHT22;48626;51.678;5.806;2023-04-08T15:00:45;19.00;99.90
62573;DHT22;48626;51.678;5.806;2023-04-08T15:03:13;19.00;99.90
62573;DHT22;48626;51.678;5.806;2023-04-08T15:05:39;18.90;99.90
62573;DHT22;48626;51.678;5.806;2023-04-08T15:08:05;18.90;99.90
62573;DHT22;48626;51.678;5.806;2023-04-08T15:10:31;18.80;99.90
62573;DHT22;48626;51.678;5.806;2023-04-08T15:12:57;18.80;99.90
62573;DHT22;48626;51.678;5.806;2023-04-08T15:15:23;18.80;99.90
62573;DHT22;48626;51.678;5.806;2023-04-08T15:17:49;18.70;99.90
62573;DHT22;48626;51.678;5.806;2023-04-08T15:20:14;18.90;99.90
62573;DHT22;48626;51.678;5.806;2023-04-08T15:22:40;18.90;99.90
62573;DHT22;48626;51.678;5.806;2023-04-08T15:25:06;18.90;99.90
62573;DHT22;48626;51.678;5.806;2023-04-08T15:27:32;18.80;99.90
62573;DHT22;48626;51.678;5.806;2023-04-08T15:29:59;18.90;99.90
62573;DHT22;48626;51.678;5.806;2023-04-08T15:32:25;19.10;99.90
62573;DHT22;48626;51.678;5.806;2023-04-08T15:34:51;19.10;99.90
62573;DHT22;48626;51.678;5.806;2023-04-08T15:37:17;19.10;99.90
62573;DHT22;48626;51.678;5.806;2023-04-08T15:39:43;19.00;99.90
62573;DHT22;48626;51.678;5.806;2023-04-08T15:42:08;18.70;99.90
62573;DHT22;48626;51.678;5.806;2023-04-08T15:44:34;18.60;99.90
62573;DHT22;48626;51.678;5.806;2023-04-08T15:47:00;18.50;99.90
62573;DHT22;48626;51.678;5.806;2023-04-08T15:49:27;18.60;99.90
62573;DHT22;48626;51.678;5.806;2023-04-08T15:51:52;18.60;99.90
62573;DHT22;48626;51.678;5.806;2023-04-08T15:54:18;18.70;99.90
62573;DHT22;48626;51.678;5.806;2023-04-08T15:56:44;18.70;99.90
62573;DHT22;48626;51.678;5.806;2023-04-08T15:59:12;18.70;99.90
62573;DHT22;48626;51.678;5.806;2023-04-08T16:01:37;18.50;99.90